Overview Statistics Trail Chart Weather Telemetry Raw packets
 

This is the latest recevied weather packets stored in our database for station/object OE3CJB-13. If no packets are shown the sender has not sent any weather packets the latest 10 day(s).

<< 1 2 3 4 5 6 >>
Time Temp. Humidity Pressure Rain* Wind** Luminosity Snow
1788668171 13.33° C 77% 1199.9 hPa 0 mm - - -
1788667267 13.89° C 77% 1201.3 hPa 0 mm - - -
1788666336 13.89° C 75% 1200.3 hPa 0 mm - - -
1788665424 14.44° C 74% 1201.1 hPa 0 mm - - -
1788664566 14.44° C 73% 1201.9 hPa 0 mm - - -
1788663650 15° C 70% 1201.8 hPa 0 mm - - -
1788662741 15.56° C 68% 1201.7 hPa 0 mm - - -
1788661823 15.56° C 67% 1202.4 hPa 0 mm - - -
1788660966 16.11° C 66% 1202.6 hPa 0 mm - - -
1788660050 16.11° C 65% 1202.4 hPa 0 mm - - -
1788659136 16.67° C 64% 1203.1 hPa 0 mm - - -
1788658223 16.67° C 63% 1203.1 hPa 0 mm - - -
1788657366 17.22° C 62% 1203.1 hPa 0 mm - - -
1788656468 17.22° C 59% 1203.7 hPa 0 mm - - -
1788655565 17.78° C 56% 1203.7 hPa 0 mm - - -
1788654624 17.78° C 54% 1204.3 hPa 0 mm - - -
1788653766 17.78° C 52% 1205.1 hPa 0 mm - - -
1788652883 18.33° C 49% 1205.8 hPa 0 mm - - -
1788651935 18.33° C 49% 1205 hPa 0 mm - - -
1788651042 18.33° C 54% 1205.7 hPa 0 mm - - -
1788650166 17.78° C 62% 1206.4 hPa 0 mm - - -
1788649267 18.33° C 62% 1207.2 hPa 0 mm - - -
1788648335 18.33° C 61% 1207.7 hPa 0 mm - - -
1788647423 18.33° C 60% 1208.2 hPa 0 mm - - -
1788646565 18.33° C 60% 1209.6 hPa 0 mm - - -

* Rain latest hour (hover to see other rain measurements)
** Current wind speed in m/s (hover to see current wind gust speed)